Time;durP1;ratioP1;P1;durP2;ratioP2;P2;SDS_P1;SDS_P2;PMS_P1;PMS_P2;Temp;Humidity;BMP_temperature;BMP_pressure;BME280_temperature;BME280_humidity;BME280_pressure;Samples;Min_cycle;Max_cycle;Signal;HPM_P1;HPM_P2
2023/12/29 00:03:22;;;;;;;0.00;0.00;;;;;;;-145.06;100.00;54433.13;10495784;28;20044;-68
2023/12/29 00:08:23;;;;;;;0.10;0.10;;;;;;;-145.06;100.00;54471.63;10495841;28;20032;-68
2023/12/29 00:13:24;;;;;;;0.10;0.10;;;;;;;-145.06;100.00;54435.16;10489106;28;20028;-68
2023/12/29 00:18:24;;;;;;;0.10;0.10;;;;;;;-145.06;100.00;54414.91;10461395;28;20055;-67
2023/12/29 00:23:25;;;;;;;0.00;0.00;;;;;;;-145.06;100.00;54451.38;10495372;28;20104;-67
2023/12/29 00:28:25;;;;;;;0.10;0.10;;;;;;;-145.06;100.00;54465.53;10493922;28;20025;-67
2023/12/29 00:33:26;;;;;;;0.10;0.10;;;;;;;-145.06;100.00;54439.22;10490737;28;20019;-67
2023/12/29 00:38:30;;;;;;;0.00;0.00;;;;;;;-145.06;100.00;54455.41;10494870;28;20311;-68
2023/12/29 00:43:30;;;;;;;0.10;0.10;;;;;;;-145.06;100.00;54471.63;10494769;28;20032;-68
2023/12/29 00:48:31;;;;;;;0.10;0.10;;;;;;;-145.06;100.00;54423.00;10451718;28;20263;-68
2023/12/29 00:53:34;;;;;;;0.00;0.00;;;;;;;-145.06;100.00;54461.50;10492626;28;20032;-68
2023/12/29 00:58:34;;;;;;;0.03;0.03;;;;;;;-145.06;100.00;54461.50;10465766;28;20039;-68
2023/12/29 01:03:34;;;;;;;0.03;0.03;;;;;;;-145.06;100.00;54469.59;10466539;28;20604;-68
2023/12/29 01:08:35;;;;;;;0.00;0.00;;;;;;;-145.06;100.00;54451.38;10494331;28;20519;-67
2023/12/29 01:13:35;;;;;;;0.10;0.10;;;;;;;-145.06;100.00;54471.63;10485009;28;21698;-67
2023/12/29 01:18:35;;;;;;;0.03;0.03;;;;;;;-145.06;100.00;54439.22;10456219;28;20035;-68
2023/12/29 01:23:36;;;;;;;0.00;0.00;;;;;;;-145.06;100.00;54455.41;10452533;28;20493;-67
2023/12/29 01:28:36;;;;;;;0.00;0.00;;;;;;;-145.06;100.00;54443.28;10478348;28;20020;-67
2023/12/29 01:33:36;;;;;;;0.00;0.00;;;;;;;-145.06;100.00;54459.47;10475402;28;20366;-67
2023/12/29 01:38:38;;;;;;;0.00;0.00;;;;;;;-145.06;100.00;54463.53;10477029;28;20386;-67
2023/12/29 01:43:57;;;;;;;0.00;0.00;;;;;;;-145.06;100.00;54443.28;10472204;28;20039;-67
2023/12/29 01:48:58;;;;;;;0.00;0.00;;;;;;;-145.06;100.00;54459.47;10484144;28;20482;-69
2023/12/29 01:53:59;;;;;;;0.00;0.00;;;;;;;-145.06;100.00;54469.59;10484338;28;20024;-69
2023/12/29 01:58:59;;;;;;;0.00;0.00;;;;;;;-145.06;100.00;54435.16;10490868;28;20108;-69
2023/12/29 02:04:00;;;;;;;0.10;0.10;;;;;;;-145.06;100.00;54435.16;10470969;28;20141;-68
2023/12/29 02:09:03;;;;;;;0.00;0.00;;;;;;;-145.06;100.00;54443.28;10487112;28;20263;-68
2023/12/29 02:14:04;;;;;;;0.10;0.10;;;;;;;-145.06;100.00;54447.31;10466610;28;20486;-69
2023/12/29 02:19:35;;;;;;;0.10;0.10;;;;;;;-145.06;100.00;54425.03;10482852;28;20025;-69
2023/12/29 02:24:37;;;;;;;0.00;0.00;;;;;;;-145.06;100.00;54410.84;10470574;28;20124;-69
2023/12/29 02:29:40;;;;;;;0.00;0.00;;;;;;;-145.06;100.00;54441.25;10450126;28;20082;-68
2023/12/29 02:34:41;;;;;;;0.10;0.10;;;;;;;-145.06;100.00;54435.16;10462420;28;20074;-69
2023/12/29 02:39:41;;;;;;;0.00;0.00;;;;;;;-145.06;100.00;54404.78;10493324;28;20032;-68
2023/12/29 02:44:42;;;;;;;0.10;0.10;;;;;;;-145.06;100.00;54425.03;10498791;28;20389;-68
2023/12/29 02:49:42;;;;;;;0.00;0.00;;;;;;;-145.06;100.00;54418.97;10427366;28;20260;-70
2023/12/29 02:54:42;;;;;;;0.00;0.00;;;;;;;-145.06;100.00;54435.16;10415977;28;20025;-69
2023/12/29 02:59:43;;;;;;;0.00;0.00;;;;;;;-145.06;100.00;54431.13;10446634;28;20021;-69
2023/12/29 03:04:43;;;;;;;0.10;0.10;;;;;;;-145.06;100.00;54451.38;10479552;28;20035;-68
2023/12/29 03:09:43;;;;;;;0.00;0.00;;;;;;;-145.06;100.00;54495.94;10469640;28;20024;-69
2023/12/29 03:14:44;;;;;;;0.10;0.10;;;;;;;-145.06;100.00;54461.50;10481891;28;20028;-69
2023/12/29 03:19:44;;;;;;;0.10;0.10;;;;;;;-145.06;100.00;54445.28;10468607;28;20033;-69
2023/12/29 03:24:44;;;;;;;0.00;0.00;;;;;;;-145.06;100.00;54453.41;10440138;28;20082;-69
2023/12/29 03:29:45;;;;;;;0.00;0.00;;;;;;;-145.06;100.00;54453.41;10457799;28;20103;-69
2023/12/29 03:34:45;;;;;;;0.05;0.05;;;;;;;-145.06;100.00;54437.19;10480858;28;20043;-69
2023/12/29 03:39:46;;;;;;;0.00;0.00;;;;;;;-145.06;100.00;54471.63;10487728;28;20144;-69
2023/12/29 03:44:46;;;;;;;0.10;0.10;;;;;;;-145.06;100.00;54439.22;10487224;28;20020;-69
2023/12/29 03:49:47;;;;;;;0.10;0.10;;;;;;;-145.06;100.00;54406.81;10475661;28;20092;-69
2023/12/29 03:54:47;;;;;;;0.00;0.00;;;;;;;-145.06;100.00;54418.97;10485883;28;20020;-67
2023/12/29 03:59:47;;;;;;;0.00;0.00;;;;;;;-145.06;100.00;54443.28;10466668;28;20474;-68
2023/12/29 04:04:48;;;;;;;0.00;0.00;;;;;;;-145.06;100.00;54506.06;10472877;28;20554;-67
2023/12/29 04:09:48;;;;;;;0.05;0.05;;;;;;;-145.06;100.00;54506.06;10471103;28;20044;-68
2023/12/29 04:14:48;;;;;;;0.00;0.00;;;;;;;-145.06;100.00;54556.69;10463721;28;20548;-68
2023/12/29 04:19:48;;;;;;;0.10;0.10;;;;;;;-145.06;100.00;54516.19;10475589;28;20397;-68
2023/12/29 04:24:49;;;;;;;0.10;0.10;;;;;;;-145.06;100.00;54568.84;10468543;28;20465;-69
2023/12/29 04:29:49;;;;;;;0.00;0.00;;;;;;;-145.06;100.00;54554.66;10494886;28;20020;-69
2023/12/29 04:34:49;;;;;;;0.00;0.00;;;;;;;-145.06;100.00;54599.22;10466330;28;20083;-68
2023/12/29 04:39:49;;;;;;;0.00;0.00;;;;;;;-145.06;100.00;54574.91;10463618;28;20025;-69
2023/12/29 04:44:50;;;;;;;0.00;0.00;;;;;;;-145.06;100.00;54556.69;10434209;28;20479;-68
2023/12/29 04:49:50;;;;;;;0.10;0.10;;;;;;;-145.06;100.00;54581.00;10415242;28;20091;-69
2023/12/29 04:54:51;;;;;;;0.10;0.10;;;;;;;-145.06;100.00;54560.75;10490934;28;20043;-68
2023/12/29 04:59:51;;;;;;;0.10;0.10;;;;;;;-145.06;100.00;54572.91;10457638;28;20026;-69
2023/12/29 05:04:51;;;;;;;0.00;0.00;;;;;;;-145.06;100.00;54581.00;10471981;28;20025;-68
2023/12/29 05:09:52;;;;;;;0.10;0.10;;;;;;;-145.06;100.00;54572.91;10438086;28;20024;-69
2023/12/29 05:14:52;;;;;;;0.10;0.10;;;;;;;-145.06;100.00;54568.84;10456851;28;20107;-69
2023/12/29 05:19:53;;;;;;;0.00;0.00;;;;;;;-145.06;100.00;54570.88;10476416;28;20097;-69
2023/12/29 05:24:57;;;;;;;0.10;0.10;;;;;;;-145.06;100.00;54536.44;10476965;28;20030;-68
2023/12/29 05:29:57;;;;;;;0.00;0.00;;;;;;;-145.06;100.00;54585.06;10458083;28;20029;-66
2023/12/29 05:34:58;;;;;;;0.00;0.00;;;;;;;-145.06;100.00;54589.09;10465335;28;20025;-67
2023/12/29 05:39:58;;;;;;;0.10;0.10;;;;;;;-145.06;100.00;54581.00;10436613;28;20024;-66
2023/12/29 05:44:58;;;;;;;0.10;0.10;;;;;;;-145.06;100.00;54560.75;10464832;28;20025;-69
2023/12/29 05:49:59;;;;;;;0.10;0.10;;;;;;;-145.06;100.00;54568.84;10458527;28;20032;-68
2023/12/29 05:54:59;;;;;;;0.00;0.00;;;;;;;-145.06;100.00;54595.19;10487025;28;20259;-67
2023/12/29 05:59:59;;;;;;;0.00;0.00;;;;;;;-145.06;100.00;54566.81;10467742;28;20353;-68
2023/12/29 06:05:00;;;;;;;0.00;0.00;;;;;;;-145.06;100.00;54585.06;10459259;28;20436;-67
2023/12/29 06:10:00;;;;;;;0.10;0.10;;;;;;;-145.06;100.00;54564.78;10478271;28;20266;-68
2023/12/29 06:15:01;;;;;;;0.00;0.00;;;;;;;-145.06;100.00;54560.75;10478705;28;20293;-68
2023/12/29 06:20:05;;;;;;;0.00;0.00;;;;;;;-145.06;100.00;54560.75;10465151;28;20025;-68
2023/12/29 06:25:08;;;;;;;0.00;0.00;;;;;;;-145.06;100.00;54558.72;10469865;28;20021;-68
2023/12/29 06:30:12;;;;;;;0.10;0.10;;;;;;;-145.06;100.00;54552.66;10460968;28;20037;-68
2023/12/29 06:35:13;;;;;;;0.10;0.10;;;;;;;-145.06;100.00;54562.78;10473378;28;20486;-68
2023/12/29 06:40:14;;;;;;;0.08;0.08;;;;;;;-145.06;100.00;54552.66;10462923;28;20033;-68
2023/12/29 06:45:14;;;;;;;0.10;0.10;;;;;;;-145.06;100.00;54566.81;10472168;28;20017;-69
2023/12/29 06:50:15;;;;;;;0.00;0.00;;;;;;;-145.06;100.00;54546.56;10465259;28;20446;-68
2023/12/29 06:55:15;;;;;;;0.00;0.00;;;;;;;-145.06;100.00;54520.22;10485005;28;20058;-68
2023/12/29 07:00:16;;;;;;;0.10;0.10;;;;;;;-145.06;100.00;54526.31;10484046;28;20432;-68
2023/12/29 07:05:16;;;;;;;0.10;0.10;;;;;;;-145.06;100.00;54524.28;10476223;28;20815;-69
2023/12/29 07:10:16;;;;;;;0.00;0.00;;;;;;;-145.06;100.00;54528.34;10460326;28;20039;-69
2023/12/29 07:15:17;;;;;;;0.00;0.00;;;;;;;-145.06;100.00;54487.81;10464527;28;20302;-67
2023/12/29 07:20:17;;;;;;;0.10;0.10;;;;;;;-145.06;100.00;54540.50;10468556;28;20282;-68
2023/12/29 07:25:17;;;;;;;0.08;0.08;;;;;;;-145.06;100.00;54497.94;10469672;28;20047;-68
2023/12/29 07:30:18;;;;;;;0.00;0.00;;;;;;;-145.06;100.00;54504.03;10445938;28;20021;-68
2023/12/29 07:35:19;;;;;;;0.00;0.00;;;;;;;-145.06;100.00;54536.44;10466193;28;20048;-69
2023/12/29 07:40:20;;;;;;;0.00;0.00;;;;;;;-145.06;100.00;54518.22;10485829;28;20047;-69
2023/12/29 07:45:20;;;;;;;0.10;0.10;;;;;;;-145.06;100.00;54475.66;10454419;28;20549;-68
2023/12/29 07:50:20;;;;;;;0.10;0.10;;;;;;;-145.06;100.00;54504.03;10480008;28;20258;-69
2023/12/29 07:55:21;;;;;;;0.10;0.10;;;;;;;-145.06;100.00;54479.72;10457611;28;20025;-69
2023/12/29 08:00:22;;;;;;;0.10;0.10;;;;;;;-145.06;100.00;54520.22;10472907;28;20047;-67
2023/12/29 08:05:22;;;;;;;0.00;0.00;;;;;;;-145.06;100.00;54508.09;10465493;28;20116;-69
2023/12/29 08:10:22;;;;;;;0.10;0.10;;;;;;;-145.06;100.00;54520.22;10464621;28;20543;-68
2023/12/29 08:15:23;;;;;;;0.00;0.00;;;;;;;-145.06;100.00;54489.84;10471170;28;20017;-68
2023/12/29 08:20:24;;;;;;;0.00;0.00;;;;;;;-145.06;100.00;54526.31;10470212;28;20454;-69
2023/12/29 08:25:24;;;;;;;0.10;0.10;;;;;;;-145.06;100.00;54512.13;10461088;28;20024;-67
2023/12/29 08:30:24;;;;;;;0.10;0.10;;;;;;;-145.06;100.00;54481.75;10468371;28;20035;-68
2023/12/29 08:35:25;;;;;;;0.10;0.10;;;;;;;-145.06;100.00;54477.69;10468760;28;20483;-68
2023/12/29 08:40:25;;;;;;;0.10;0.10;;;;;;;-145.06;100.00;54499.97;10469535;28;20025;-68
2023/12/29 08:45:25;;;;;;;0.10;0.10;;;;;;;-145.06;100.00;54493.91;10463932;28;20033;-68
2023/12/29 08:50:25;;;;;;;0.10;0.10;;;;;;;-145.06;100.00;54526.31;10447482;28;20017;-67
2023/12/29 08:55:26;;;;;;;0.10;0.10;;;;;;;-145.06;100.00;54540.50;10467808;28;20485;-67
2023/12/29 09:00:26;;;;;;;0.10;0.10;;;;;;;-145.06;100.00;54495.94;10445652;28;20050;-69
2023/12/29 09:05:26;;;;;;;0.10;0.10;;;;;;;-145.06;100.00;54544.53;10446852;28;20028;-69
2023/12/29 09:10:27;;;;;;;0.00;0.00;;;;;;;-145.06;100.00;54542.50;10494434;28;20073;-69
2023/12/29 09:15:27;;;;;;;0.10;0.10;;;;;;;-145.06;100.00;54546.56;10474038;28;20023;-68
2023/12/29 09:20:27;;;;;;;0.10;0.10;;;;;;;-145.06;100.00;54560.75;10497172;28;20024;-68
2023/12/29 09:25:27;;;;;;;0.08;0.08;;;;;;;-145.06;100.00;54518.22;10502126;28;20025;-69
2023/12/29 09:30:28;;;;;;;0.00;0.00;;;;;;;-145.06;100.00;54566.81;10492657;28;20040;-68
2023/12/29 09:35:28;;;;;;;0.00;0.00;;;;;;;-145.06;100.00;54544.53;10452137;28;20025;-69
2023/12/29 09:40:28;;;;;;;0.10;0.10;;;;;;;-145.06;100.00;54530.34;10460159;28;20055;-69
2023/12/29 09:45:29;;;;;;;0.10;0.10;;;;;;;-145.06;100.00;54548.59;10468233;28;20029;-68
2023/12/29 09:50:30;;;;;;;0.00;0.00;;;;;;;-145.06;100.00;54542.50;10459112;28;20047;-69
2023/12/29 09:55:31;;;;;;;0.10;0.10;;;;;;;-145.06;100.00;54524.28;10481677;28;20036;-69
2023/12/29 10:00:33;;;;;;;0.10;0.10;;;;;;;-145.06;100.00;54520.22;10484361;28;20021;-69
2023/12/29 10:05:34;;;;;;;0.10;0.10;;;;;;;-145.06;100.00;54469.59;10485030;28;20025;-68
2023/12/29 10:10:36;;;;;;;0.00;0.00;;;;;;;-145.06;100.00;54512.13;10486612;28;20406;-69
2023/12/29 10:15:56;;;;;;;0.10;0.10;;;;;;;-145.06;100.00;54467.56;10492502;28;20020;-69
2023/12/29 10:21:08;;;;;;;0.10;0.10;;;;;;;-145.06;100.00;54493.91;10482953;28;20471;-69
2023/12/29 10:26:11;;;;;;;0.10;0.10;;;;;;;-145.06;100.00;54467.56;10449763;28;20025;-69
2023/12/29 10:31:15;;;;;;;0.00;0.00;;;;;;;-145.06;100.00;54453.41;10470735;28;20017;-68
2023/12/29 10:36:15;;;;;;;0.10;0.10;;;;;;;-145.06;100.00;54459.47;10466742;28;20474;-69
2023/12/29 10:41:18;;;;;;;0.10;0.10;;;;;;;-145.06;100.00;54497.94;10473645;28;20078;-69
2023/12/29 10:46:19;;;;;;;0.10;0.10;;;;;;;-145.06;100.00;54475.66;10464849;28;20025;-69
2023/12/29 10:51:27;;;;;;;0.00;0.00;;;;;;;-145.06;100.00;54455.41;10460243;28;20029;-68
2023/12/29 10:56:28;;;;;;;0.10;0.10;;;;;;;-145.06;100.00;54461.50;10478972;28;20043;-68
2023/12/29 11:01:33;;;;;;;0.10;0.10;;;;;;;-145.06;100.00;54483.78;10471623;28;20028;-68
2023/12/29 11:06:47;;;;;;;0.00;0.00;;;;;;;-145.06;100.00;54471.63;10460160;28;20405;-67
2023/12/29 11:11:47;;;;;;;0.10;0.10;;;;;;;-145.06;100.00;54463.53;10481593;28;20510;-68
2023/12/29 11:16:49;;;;;;;0.10;0.10;;;;;;;-145.06;100.00;54447.31;10465511;28;20142;-71
2023/12/29 11:21:55;;;;;;;0.10;0.10;;;;;;;-145.06;100.00;54475.66;10443538;28;20043;-70
2023/12/29 11:26:55;;;;;;;0.10;0.10;;;;;;;-145.06;100.00;54479.72;10465635;28;20517;-69
2023/12/29 11:31:58;;;;;;;0.10;0.10;;;;;;;-145.06;100.00;54479.72;10463307;28;20096;-69
2023/12/29 11:37:24;;;;;;;0.00;0.00;;;;;;;-145.06;100.00;54429.09;10455909;28;20482;-68
2023/12/29 11:42:32;;;;;;;0.00;0.00;;;;;;;-145.06;100.00;54396.69;10467172;28;20162;-68
2023/12/29 11:47:37;;;;;;;0.00;0.00;;;;;;;-145.06;100.00;54477.69;10465375;28;20021;-68
2023/12/29 11:52:39;;;;;;;0.00;0.00;;;;;;;-145.06;100.00;54437.19;10451711;28;20021;-68
2023/12/29 11:57:41;;;;;;;0.10;0.10;;;;;;;-145.06;100.00;54451.38;10471831;28;20127;-68
2023/12/29 12:02:41;;;;;;;0.10;0.10;;;;;;;-145.06;100.00;54443.28;10459509;28;20382;-68
2023/12/29 12:07:44;;;;;;;0.10;0.10;;;;;;;-145.06;100.00;54435.16;10458562;28;20017;-68
2023/12/29 12:12:45;;;;;;;0.10;0.10;;;;;;;-145.06;100.00;54433.13;10443820;28;20076;-68
2023/12/29 12:17:50;;;;;;;0.10;0.10;;;;;;;-145.06;100.00;54427.06;10441407;28;20419;-67
2023/12/29 12:23:17;;;;;;;0.10;0.10;;;;;;;-145.06;100.00;54431.13;10452439;28;20036;-68
2023/12/29 12:28:18;;;;;;;0.10;0.10;;;;;;;-145.06;100.00;54423.00;10468128;28;20032;-68
2023/12/29 12:33:18;;;;;;;0.10;0.10;;;;;;;-145.06;100.00;54449.34;10463388;28;20035;-67
2023/12/29 12:38:21;;;;;;;0.10;0.10;;;;;;;-145.06;100.00;54421.00;10465910;28;20033;-67
2023/12/29 12:43:26;;;;;;;0.10;0.10;;;;;;;-145.06;100.00;54459.47;10465760;28;20259;-67
2023/12/29 12:48:35;;;;;;;0.10;0.10;;;;;;;-145.06;100.00;54433.13;10454084;28;20417;-68
2023/12/29 12:53:40;;;;;;;0.00;0.00;;;;;;;-145.06;100.00;54469.59;10460384;28;20025;-68
2023/12/29 12:58:41;;;;;;;0.10;0.10;;;;;;;-145.06;100.00;54421.00;10452878;28;20035;-68
2023/12/29 13:03:42;;;;;;;0.10;0.10;;;;;;;-145.06;100.00;54465.53;10439499;28;20020;-66
2023/12/29 13:08:43;;;;;;;0.10;0.10;;;;;;;-145.06;100.00;54510.09;10465491;28;20112;-67
2023/12/29 13:13:43;;;;;;;0.00;0.00;;;;;;;-145.06;100.00;54508.09;10460153;28;20381;-68
2023/12/29 13:18:46;;;;;;;0.10;0.10;;;;;;;-145.06;98.57;54489.84;10440841;28;20020;-68
2023/12/29 13:23:47;;;;;;;0.10;0.10;;;;;;;-145.06;93.46;54518.22;10453412;28;20103;-67
2023/12/29 13:28:47;;;;;;;0.00;0.00;;;;;;;-145.06;88.75;54572.91;10458736;28;20478;-66
2023/12/29 13:34:13;;;;;;;0.00;0.00;;;;;;;-145.06;89.69;54562.78;10452697;28;20013;-67
2023/12/29 13:39:42;;;;;;;0.10;0.10;;;;;;;-145.06;89.71;54583.03;10456597;28;20032;-67
2023/12/29 13:44:43;;;;;;;0.10;0.10;;;;;;;-145.06;90.89;54595.19;10454479;28;20109;-68
2023/12/29 13:49:43;;;;;;;0.00;0.00;;;;;;;-145.06;91.66;54574.91;10455038;28;20124;-68
2023/12/29 13:54:44;;;;;;;0.10;0.10;;;;;;;-145.06;92.22;54566.81;10466474;28;20017;-68
2023/12/29 13:59:45;;;;;;;0.00;0.00;;;;;;;-145.06;91.84;54572.91;10440737;28;20028;-66
2023/12/29 14:04:45;;;;;;;0.00;0.00;;;;;;;-145.06;93.38;54601.25;10450354;28;20025;-66
2023/12/29 14:09:45;;;;;;;0.10;0.10;;;;;;;-145.06;95.11;54585.06;10474037;28;20024;-66
2023/12/29 14:14:46;;;;;;;0.00;0.00;;;;;;;-145.06;95.57;54585.06;10476727;28;20017;-68
2023/12/29 14:19:46;;;;;;;0.00;0.00;;;;;;;-145.06;96.90;54562.78;10464974;28;20284;-67
2023/12/29 14:25:00;;;;;;;0.10;0.10;;;;;;;-145.06;98.42;54581.00;10471423;28;20021;-68
2023/12/29 14:30:00;;;;;;;0.10;0.10;;;;;;;-145.06;98.80;54560.75;10477124;28;20027;-67
2023/12/29 14:35:09;;;;;;;0.07;0.07;;;;;;;-145.06;100.00;54589.09;10461715;28;20025;-67
2023/12/29 14:40:11;;;;;;;0.10;0.10;;;;;;;-145.06;97.68;54562.78;10469259;28;20293;-67
2023/12/29 14:45:11;;;;;;;0.10;0.10;;;;;;;-145.06;96.19;54605.31;10468646;28;20024;-67
2023/12/29 14:50:12;;;;;;;0.10;0.10;;;;;;;-145.06;93.57;54637.72;10462231;28;20095;-67
2023/12/29 14:55:12;;;;;;;0.10;0.10;;;;;;;-145.06;92.22;54605.31;10461954;28;20268;-67
2023/12/29 15:00:14;;;;;;;0.00;0.00;;;;;;;-145.06;90.83;54655.94;10468428;28;20017;-68
2023/12/29 15:05:15;;;;;;;0.05;0.05;;;;;;;-145.06;89.75;54643.78;10456098;28;20033;-67
2023/12/29 15:10:15;;;;;;;0.00;0.00;;;;;;;-145.06;91.38;54623.53;10461586;28;20017;-67
2023/12/29 15:15:15;;;;;;;0.10;0.10;;;;;;;-145.06;91.60;54619.47;10461057;28;20478;-67
2023/12/29 15:20:16;;;;;;;0.00;0.00;;;;;;;-145.06;92.05;54643.78;10458747;28;20024;-67
2023/12/29 15:25:16;;;;;;;0.00;0.00;;;;;;;-145.06;93.11;54629.63;10466758;28;20089;-67
2023/12/29 15:30:16;;;;;;;0.03;0.03;;;;;;;-145.06;93.96;54649.88;10459923;28;20270;-68
2023/12/29 15:35:17;;;;;;;0.00;0.00;;;;;;;-145.06;93.53;54657.97;10469631;28;20097;-68
2023/12/29 15:40:17;;;;;;;0.10;0.10;;;;;;;-145.06;91.34;54670.13;10464225;28;20029;-67
2023/12/29 15:45:19;;;;;;;0.10;0.10;;;;;;;-145.06;90.91;54647.84;10468603;28;20133;-68
2023/12/29 15:50:19;;;;;;;0.00;0.00;;;;;;;-145.06;91.45;54639.75;10470264;28;20074;-67
2023/12/29 15:55:19;;;;;;;0.00;0.00;;;;;;;-145.06;91.19;54633.66;10454393;28;20665;-67
2023/12/29 16:00:20;;;;;;;0.10;0.10;;;;;;;-145.06;91.44;54662.03;10466022;28;20027;-67
2023/12/29 16:05:20;;;;;;;0.00;0.00;;;;;;;-145.06;91.60;54655.94;10456990;28;20047;-68
2023/12/29 16:10:24;;;;;;;0.00;0.00;;;;;;;-145.06;92.17;54631.63;10464369;28;20012;-68
2023/12/29 16:15:24;;;;;;;0.10;0.10;;;;;;;-145.06;93.12;54672.16;10452224;28;20025;-67
2023/12/29 16:20:24;;;;;;;0.00;0.00;;;;;;;-145.06;93.33;54694.44;10464887;28;20035;-67
2023/12/29 16:25:24;;;;;;;0.10;0.10;;;;;;;-145.06;94.00;54660.00;10456611;28;20024;-67
2023/12/29 16:30:25;;;;;;;0.05;0.05;;;;;;;-145.06;93.32;54696.44;10467561;28;20028;-67
2023/12/29 16:35:26;;;;;;;0.10;0.10;;;;;;;-145.06;93.59;54639.75;10469981;28;20107;-68
2023/12/29 16:40:26;;;;;;;0.10;0.10;;;;;;;-145.06;93.26;54647.84;10455638;28;20024;-68
2023/12/29 16:45:27;;;;;;;0.10;0.10;;;;;;;-145.06;93.12;54653.91;10467789;28;20020;-67
2023/12/29 16:50:28;;;;;;;0.00;0.00;;;;;;;-145.06;94.01;54666.06;10448272;28;20013;-67
2023/12/29 16:55:28;;;;;;;0.00;0.00;;;;;;;-145.06;94.76;54682.28;10458134;28;20037;-68
2023/12/29 17:00:28;;;;;;;0.00;0.00;;;;;;;-145.06;95.38;54660.00;10468452;28;20555;-67
2023/12/29 17:05:29;;;;;;;0.10;0.10;;;;;;;-145.06;96.12;54655.94;10462770;28;20020;-67
2023/12/29 17:10:29;;;;;;;0.10;0.10;;;;;;;-145.06;97.34;54629.63;10456611;28;20028;-67
2023/12/29 17:15:29;;;;;;;0.10;0.10;;;;;;;-145.06;98.10;54657.97;10454501;28;20539;-68
2023/12/29 17:20:30;;;;;;;0.00;0.00;;;;;;;-145.06;97.82;54680.25;10466550;28;20381;-68
2023/12/29 17:25:30;;;;;;;0.00;0.00;;;;;;;-145.06;97.34;54664.03;10458496;28;20531;-68
2023/12/29 17:30:30;;;;;;;0.10;0.10;;;;;;;-145.06;97.26;54649.88;10468569;28;20105;-67
2023/12/29 17:35:31;;;;;;;0.00;0.00;;;;;;;-145.06;96.61;54686.31;10473635;28;20546;-67
2023/12/29 17:40:31;;;;;;;0.10;0.10;;;;;;;-145.06;96.99;54655.94;10469989;28;20027;-68
2023/12/29 17:45:31;;;;;;;0.03;0.03;;;;;;;-145.06;96.61;54674.19;10467676;28;20017;-68
2023/12/29 17:50:31;;;;;;;0.00;0.00;;;;;;;-145.06;96.31;54678.22;10471813;28;20023;-67
2023/12/29 17:55:32;;;;;;;0.10;0.10;;;;;;;-145.06;96.56;54668.09;10468820;28;20026;-67
2023/12/29 18:00:32;;;;;;;0.00;0.00;;;;;;;-145.06;95.50;54698.47;10467838;28;20270;-67
2023/12/29 18:05:32;;;;;;;0.10;0.10;;;;;;;-145.06;95.59;54641.75;10473070;28;20120;-68
2023/12/29 18:10:33;;;;;;;0.10;0.10;;;;;;;-145.06;95.23;54674.19;10477060;28;20043;-67
2023/12/29 18:15:33;;;;;;;0.00;0.00;;;;;;;-145.06;96.32;54674.19;10469118;28;20628;-67
2023/12/29 18:20:34;;;;;;;0.00;0.00;;;;;;;-145.06;96.84;54676.19;10455927;28;20016;-67
2023/12/29 18:25:34;;;;;;;0.10;0.10;;;;;;;-145.06;96.72;54694.44;10465131;28;20036;-67
2023/12/29 18:30:34;;;;;;;0.00;0.00;;;;;;;-145.06;97.43;54696.44;10448998;28;20017;-67
2023/12/29 18:35:35;;;;;;;0.00;0.00;;;;;;;-145.06;97.97;54696.44;10471583;28;20051;-67
2023/12/29 18:40:35;;;;;;;0.10;0.10;;;;;;;-145.06;98.94;54664.03;10464653;28;20543;-68
2023/12/29 18:45:35;;;;;;;0.00;0.00;;;;;;;-145.06;98.92;54680.25;10470943;28;20033;-67
2023/12/29 18:50:36;;;;;;;0.00;0.00;;;;;;;-145.06;98.69;54702.53;10457815;28;20352;-67
2023/12/29 18:55:40;;;;;;;0.10;0.10;;;;;;;-145.06;98.46;54674.19;10474948;28;20027;-68
2023/12/29 19:00:41;;;;;;;0.10;0.10;;;;;;;-145.06;98.88;54686.31;10448646;28;20021;-68
2023/12/29 19:05:41;;;;;;;0.00;0.00;;;;;;;-145.06;100.00;54692.41;10468772;28;20039;-67
2023/12/29 19:10:43;;;;;;;0.00;0.00;;;;;;;-145.06;100.00;54655.94;10467962;28;20016;-67
2023/12/29 19:15:43;;;;;;;0.00;0.00;;;;;;;-145.06;100.00;54698.47;10455029;28;20100;-67
2023/12/29 19:20:43;;;;;;;0.10;0.10;;;;;;;-145.06;100.00;54678.22;10452919;28;20032;-67
2023/12/29 19:25:43;;;;;;;0.10;0.10;;;;;;;-145.06;100.00;54666.06;10456079;28;20029;-67
2023/12/29 19:30:44;;;;;;;0.00;0.00;;;;;;;-145.06;100.00;54649.88;10460827;28;20017;-67
2023/12/29 19:35:44;;;;;;;0.00;0.00;;;;;;;-145.06;100.00;54666.06;10457757;28;20152;-67
2023/12/29 19:40:45;;;;;;;0.10;0.10;;;;;;;-145.06;100.00;54641.75;10452378;28;20021;-67
2023/12/29 19:45:46;;;;;;;0.00;0.00;;;;;;;-145.06;100.00;54629.63;10460581;28;20025;-66
2023/12/29 19:50:46;;;;;;;0.00;0.00;;;;;;;-145.06;100.00;54672.16;10463071;28;20028;-67
2023/12/29 19:55:47;;;;;;;0.10;0.10;;;;;;;-145.06;100.00;54672.16;10465871;28;20027;-67
2023/12/29 20:00:48;;;;;;;0.00;0.00;;;;;;;-145.06;100.00;54637.72;10451573;28;20474;-67
2023/12/29 20:05:48;;;;;;;0.10;0.10;;;;;;;-145.06;100.00;54674.19;10462928;28;20029;-67
2023/12/29 20:10:48;;;;;;;0.00;0.00;;;;;;;-145.06;100.00;54657.97;10470388;28;20371;-66
2023/12/29 20:15:48;;;;;;;0.10;0.10;;;;;;;-145.06;100.00;54692.41;10454436;28;20025;-67
2023/12/29 20:20:49;;;;;;;0.00;0.00;;;;;;;-145.06;100.00;54672.16;10457326;28;20032;-67
2023/12/29 20:25:54;;;;;;;0.00;0.00;;;;;;;-145.06;98.46;54678.22;10464164;28;20029;-67
2023/12/29 20:30:54;;;;;;;0.00;0.00;;;;;;;-145.06;98.27;54682.28;10456385;28;20078;-66
2023/12/29 20:35:54;;;;;;;0.10;0.10;;;;;;;-145.06;98.69;54660.00;10452053;28;20131;-66
2023/12/29 20:40:55;;;;;;;0.10;0.10;;;;;;;-145.06;98.71;54684.31;10461309;28;20017;-67
2023/12/29 20:45:55;;;;;;;0.00;0.00;;;;;;;-145.06;100.00;54714.69;10459724;28;20032;-67
2023/12/29 20:50:55;;;;;;;0.00;0.00;;;;;;;-145.06;100.00;54678.22;10445597;28;20032;-67
2023/12/29 20:55:56;;;;;;;0.10;0.10;;;;;;;-145.06;100.00;54680.25;10458073;28;20020;-67
2023/12/29 21:00:56;;;;;;;0.00;0.00;;;;;;;-145.06;100.00;54678.22;10461087;28;20066;-67
2023/12/29 21:05:56;;;;;;;0.00;0.00;;;;;;;-145.06;100.00;54664.03;10463465;28;20021;-66
2023/12/29 21:10:56;;;;;;;0.00;0.00;;;;;;;-145.06;100.00;54662.03;10447443;28;20017;-67
2023/12/29 21:15:57;;;;;;;0.10;0.10;;;;;;;-145.06;100.00;54662.03;10468695;28;20052;-66
2023/12/29 21:20:57;;;;;;;0.00;0.00;;;;;;;-145.06;100.00;54688.34;10465587;28;20070;-67
2023/12/29 21:25:57;;;;;;;0.00;0.00;;;;;;;-145.06;100.00;54686.31;10472503;28;20255;-67
2023/12/29 21:30:58;;;;;;;0.10;0.10;;;;;;;-145.06;100.00;54684.31;10447962;28;20017;-67
2023/12/29 21:35:58;;;;;;;0.10;0.10;;;;;;;-145.06;100.00;54690.38;10451615;28;20013;-67
2023/12/29 21:40:58;;;;;;;0.10;0.10;;;;;;;-145.06;100.00;54694.44;10473750;28;20033;-67
2023/12/29 21:45:59;;;;;;;0.03;0.03;;;;;;;-145.06;100.00;54706.59;10471773;28;20024;-67
2023/12/29 21:51:02;;;;;;;0.00;0.00;;;;;;;-145.06;100.00;54678.22;10474029;28;20259;-67
2023/12/29 21:56:03;;;;;;;0.05;0.05;;;;;;;-145.06;100.00;54692.41;10476802;28;20031;-67
2023/12/29 22:01:25;;;;;;;0.00;0.00;;;;;;;-145.06;100.00;54743.03;10473724;28;20039;-67
2023/12/29 22:06:26;;;;;;;0.00;0.00;;;;;;;-145.06;100.00;54706.59;10446055;28;20501;-67
2023/12/29 22:11:26;;;;;;;0.00;0.00;;;;;;;-145.06;100.00;54739.00;10476886;28;20017;-67
2023/12/29 22:16:27;;;;;;;0.00;0.00;;;;;;;-145.06;100.00;54722.78;10467294;28;20683;-67
2023/12/29 22:21:27;;;;;;;0.00;0.00;;;;;;;-145.06;100.00;54712.66;10446806;28;20366;-67
2023/12/29 22:26:28;;;;;;;0.00;0.00;;;;;;;-145.06;100.00;54686.31;10463700;28;20017;-66
2023/12/29 22:31:28;;;;;;;0.10;0.10;;;;;;;-145.06;100.00;54704.56;10461607;28;20013;-67
2023/12/29 22:36:28;;;;;;;0.00;0.00;;;;;;;-145.06;100.00;54706.59;10464016;28;20023;-67
2023/12/29 22:41:28;;;;;;;0.10;0.10;;;;;;;-145.06;100.00;54712.66;10455664;28;20074;-67